CheckWX is a tool to help pilots better visualize weather data.  It is not intended as a substitute for an official pre-flight weather briefing.

16:06:18 UTC

KLBB TAF
Lubbock Preston Smith International Airport
Lubbock, Texas, USA
KLBB 171124Z 1712/1812 22006KT P6SM SKC FM171700 23014G22KT P6SM SKC FM180000 18011KT P6SM SKC

Oct-17@
12:00 UTC

Oct-17 @ 12:00 UTC

Oct-17@
17:00 UTC

Oct-17 @ 17:00 UTC

KLBB 171124Z 1712/1812 22006KT P6SM SKC
Wind
  • 220° at 6 KTS
Cloud Levels
  • Clear skies

Oct-17@
17:00 UTC

Oct-17 @ 17:00 UTC

Oct-18@
00:00 UTC

Oct-18 @ 00:00 UTC

FM171700 23014G22KT P6SM SKC

From

From Standard forecast or significant change

Wind
  • 230° at 14 KTS
  • {Gusting to 22 KTS
Cloud Levels
  • Clear skies

Oct-18@
00:00 UTC

Oct-18 @ 00:00 UTC

Oct-18@
12:00 UTC

Oct-18 @ 12:00 UTC

FM180000 18011KT P6SM SKC

From

From Standard forecast or significant change

Wind
  • 180° at 11 KTS
Cloud Levels
  • Clear skies